Time;durP1;ratioP1;P1;durP2;ratioP2;P2;SDS_P1;SDS_P2;PMS_P1;PMS_P2;Temp;Humidity;BMP_temperature;BMP_pressure;BME280_temperature;BME280_humidity;BME280_pressure;Samples;Min_cycle;Max_cycle;Signal;HPM_P1;HPM_P2
2023/09/08 00:02:29;;;;;;;4.32;2.80;;;20.40;99.90;;;20.91;100.00;101163.31;5196178;28;20045;-53
2023/09/08 00:05:05;;;;;;;4.90;3.35;;;20.40;99.90;;;20.89;100.00;101168.63;5192609;28;20071;-54
2023/09/08 00:07:38;;;;;;;6.35;3.10;;;20.30;99.90;;;20.83;100.00;101166.88;5201507;28;20144;-54
2023/09/08 00:10:12;;;;;;;3.70;2.83;;;20.30;99.90;;;20.76;100.00;101165.09;5200237;28;20250;-54
2023/09/08 00:12:44;;;;;;;4.78;2.95;;;20.30;99.90;;;20.66;100.00;101158.03;5217881;28;20044;-54
2023/09/08 00:15:16;;;;;;;5.15;2.80;;;20.20;99.90;;;20.57;100.00;101158.94;5196934;28;20045;-55
2023/09/08 00:17:49;;;;;;;4.75;2.90;;;20.10;99.90;;;20.49;100.00;101157.19;5201661;28;20053;-54
2023/09/08 00:20:21;;;;;;;4.20;2.70;;;20.00;99.90;;;20.41;100.00;101156.25;5191964;28;20050;-55
2023/09/08 00:22:54;;;;;;;4.15;2.90;;;19.90;99.90;;;20.37;100.00;101146.56;5198602;28;20490;-53
2023/09/08 00:25:27;;;;;;;4.18;2.70;;;19.90;99.90;;;20.32;100.00;101151.84;5195547;28;20045;-54
2023/09/08 00:28:00;;;;;;;4.70;2.88;;;19.80;99.90;;;20.29;100.00;101150.09;5220192;28;20050;-53
2023/09/08 00:30:32;;;;;;;3.47;2.47;;;19.80;99.90;;;20.26;100.00;101142.13;5195497;28;20054;-53
2023/09/08 00:33:08;;;;;;;4.22;3.05;;;19.70;99.90;;;20.24;100.00;101138.59;5203168;28;20172;-53
2023/09/08 00:35:41;;;;;;;3.88;2.50;;;19.70;99.90;;;20.20;100.00;101136.81;5203699;28;20054;-53
2023/09/08 00:38:13;;;;;;;3.80;2.83;;;19.70;99.90;;;20.16;100.00;101135.09;5203107;28;20491;-56
2023/09/08 00:40:47;;;;;;;4.55;3.00;;;19.70;99.90;;;20.12;100.00;101138.59;5201386;28;20046;-53
2023/09/08 00:43:19;;;;;;;6.35;3.30;;;19.60;99.90;;;20.10;100.00;101144.78;5196292;28;20041;-53
2023/09/08 00:45:52;;;;;;;4.38;2.97;;;19.60;99.90;;;20.07;100.00;101143.00;5202464;28;20065;-55
2023/09/08 00:48:24;;;;;;;4.60;3.08;;;19.60;99.90;;;20.03;100.00;101143.88;5203713;28;20029;-54
2023/09/08 00:50:57;;;;;;;5.38;2.85;;;19.50;99.90;;;19.96;100.00;101137.69;5202982;28;20167;-54
2023/09/08 00:53:30;;;;;;;5.53;3.20;;;19.50;99.90;;;19.89;100.00;101154.44;5203421;28;20045;-53
2023/09/08 00:56:05;;;;;;;3.85;2.90;;;19.40;99.90;;;19.82;100.00;101149.13;5203501;28;20136;-54
2023/09/08 00:58:37;;;;;;;5.28;2.83;;;19.30;99.90;;;19.75;100.00;101154.38;5203010;28;20049;-53
2023/09/08 01:01:10;;;;;;;3.35;2.63;;;19.30;99.90;;;19.68;100.00;101146.44;5194225;28;20058;-54
2023/09/08 01:03:43;;;;;;;4.60;2.92;;;19.20;99.90;;;19.63;100.00;101162.31;5202322;28;20049;-55
2023/09/08 01:06:16;;;;;;;3.95;2.83;;;19.10;99.90;;;19.57;100.00;101149.03;5203082;28;20073;-54
2023/09/08 01:08:49;;;;;;;3.55;2.67;;;19.10;99.90;;;19.54;100.00;101159.56;5202519;28;20367;-54
2023/09/08 01:11:23;;;;;;;4.85;2.85;;;19.00;99.90;;;19.49;100.00;101151.63;5203070;28;20053;-53
2023/09/08 01:13:56;;;;;;;5.55;2.90;;;19.00;99.90;;;19.47;100.00;101155.16;5202010;28;20049;-53
2023/09/08 01:16:28;;;;;;;5.13;3.28;;;19.00;99.90;;;19.44;100.00;101152.50;5194962;28;20465;-54
2023/09/08 01:19:01;;;;;;;4.45;2.92;;;18.90;99.90;;;19.40;100.00;101153.34;5198612;28;20395;-53
2023/09/08 01:22:11;;;;;;;4.55;3.05;;;18.90;99.90;;;19.35;100.00;101157.72;5190319;28;20554;-56
2023/09/08 01:25:20;;;;;;;5.53;3.40;;;18.90;99.90;;;19.32;100.00;101163.91;5196764;28;20057;-54
2023/09/08 01:27:54;;;;;;;4.90;3.20;;;18.90;99.90;;;19.29;100.00;101152.41;5161154;28;20518;-54
2023/09/08 01:30:32;;;;;;;4.10;2.92;;;18.80;99.90;;;19.25;100.00;101152.41;5198980;28;20076;-54
2023/09/08 01:33:05;;;;;;;4.47;3.25;;;18.80;99.90;;;19.25;100.00;101149.78;5218487;28;20052;-54
2023/09/08 01:35:38;;;;;;;4.93;3.05;;;18.80;99.90;;;19.24;100.00;101155.94;5202435;28;20057;-55
2023/09/08 01:38:11;;;;;;;5.05;3.10;;;18.80;99.90;;;19.24;100.00;101150.66;5198470;28;20096;-53
2023/09/08 01:40:44;;;;;;;4.97;3.38;;;18.80;99.90;;;19.24;100.00;101150.66;5215942;28;20080;-54
2023/09/08 01:43:17;;;;;;;5.93;3.90;;;18.70;99.90;;;19.23;100.00;101138.31;5201984;28;20056;-55
2023/09/08 01:45:49;;;;;;;4.82;3.63;;;18.80;99.90;;;19.24;100.00;101137.44;5200043;28;20054;-54
2023/09/08 01:48:22;;;;;;;4.80;3.38;;;18.80;99.90;;;19.20;100.00;101135.66;5198448;28;20049;-53
2023/09/08 01:50:54;;;;;;;4.63;3.30;;;18.80;99.90;;;19.16;100.00;101139.13;5214829;28;20049;-53
2023/09/08 01:53:27;;;;;;;4.40;3.25;;;18.70;99.90;;;19.11;100.00;101138.25;5196530;28;20049;-55
2023/09/08 01:56:00;;;;;;;5.00;3.17;;;18.70;99.90;;;19.06;100.00;101136.47;5190844;28;20046;-54
2023/09/08 01:58:33;;;;;;;5.72;3.55;;;18.60;99.90;;;19.00;100.00;101134.66;5190381;28;20060;-55
2023/09/08 02:01:06;;;;;;;5.45;3.47;;;18.50;99.90;;;18.95;100.00;101131.09;5197728;28;20435;-54
2023/09/08 02:03:40;;;;;;;;;;;18.50;99.90;;;18.90;100.00;101132.81;5190628;28;20486;-53
2023/09/08 02:06:13;;;;;;;4.75;3.00;;;18.50;99.90;;;18.86;100.00;101136.34;5197720;28;20266;-54
2023/09/08 02:08:45;;;;;;;5.43;3.38;;;18.40;99.90;;;18.83;100.00;101128.38;5198319;28;20045;-55
2023/09/08 02:11:22;;;;;;;4.72;3.13;;;18.40;99.90;;;18.80;100.00;101136.31;5190816;28;20041;-55
2023/09/08 02:13:55;;;;;;;4.63;3.40;;;18.40;99.90;;;18.77;100.00;101130.97;5216245;28;20160;-53
2023/09/08 02:16:28;;;;;;;4.82;3.20;;;18.30;99.90;;;18.72;100.00;101128.34;5196854;28;20044;-55
2023/09/08 02:19:00;;;;;;;4.70;3.33;;;18.30;99.90;;;18.68;100.00;101130.06;5199133;28;20499;-54
2023/09/08 02:21:33;;;;;;;4.43;2.78;;;18.20;99.90;;;18.65;100.00;101127.38;5197356;28;20435;-54
2023/09/08 02:24:06;;;;;;;5.55;3.35;;;18.20;99.90;;;18.63;100.00;101129.09;5217251;28;20449;-53
2023/09/08 02:26:41;;;;;;;6.65;3.33;;;18.20;99.90;;;18.63;100.00;101123.81;5197979;28;20076;-53
2023/09/08 02:29:14;;;;;;;5.03;3.30;;;18.20;99.90;;;18.65;100.00;101127.38;5194654;28;20037;-54
2023/09/08 02:31:47;;;;;;;5.65;3.50;;;18.20;99.90;;;18.67;100.00;101120.38;5197840;28;20057;-54
2023/09/08 02:34:20;;;;;;;4.50;3.25;;;18.20;99.90;;;18.67;100.00;101123.00;5201733;28;20536;-53
2023/09/08 02:36:52;;;;;;;4.80;3.25;;;18.20;99.90;;;18.67;100.00;101115.09;5202067;28;20052;-55
2023/09/08 02:39:29;;;;;;;6.30;3.40;;;18.20;99.90;;;18.66;100.00;101121.25;5197438;28;20040;-53
2023/09/08 02:42:03;;;;;;;6.00;3.70;;;18.20;99.90;;;18.63;100.00;101118.53;5216169;28;20506;-54
2023/09/08 02:44:36;;;;;;;4.43;2.90;;;18.20;99.90;;;18.61;100.00;101120.28;5189666;28;20069;-54
2023/09/08 02:47:08;;;;;;;5.57;3.40;;;18.20;99.90;;;18.55;100.00;101122.88;5209471;28;20041;-52
2023/09/08 02:49:44;;;;;;;5.22;3.33;;;18.10;99.90;;;18.52;100.00;101120.22;5197934;28;20042;-53
2023/09/08 02:52:19;;;;;;;5.43;3.53;;;18.10;99.90;;;18.48;100.00;101128.13;5196935;28;20061;-52
2023/09/08 02:54:51;;;;;;;4.45;3.30;;;18.00;99.90;;;18.44;100.00;101127.19;5214839;28;20106;-53
2023/09/08 02:57:26;;;;;;;5.43;3.30;;;18.00;99.90;;;18.38;100.00;101121.84;5189375;28;20045;-54
2023/09/08 02:59:58;;;;;;;5.50;3.35;;;18.00;99.90;;;18.34;100.00;101125.38;5215702;28;20055;-53
2023/09/08 03:02:33;;;;;;;5.53;3.40;;;17.90;99.90;;;18.31;100.00;101117.41;5200925;28;20068;-53
2023/09/08 03:05:06;;;;;;;4.82;3.08;;;17.90;99.90;;;18.27;100.00;101119.16;5201098;28;20052;-56
2023/09/08 03:07:41;;;;;;;5.82;3.30;;;17.90;99.90;;;18.24;100.00;101123.50;5197254;28;20052;-53
2023/09/08 03:10:13;;;;;;;4.93;3.28;;;17.80;99.90;;;18.23;100.00;101121.75;5201137;28;20064;-55
2023/09/08 03:12:47;;;;;;;5.18;3.40;;;17.80;99.90;;;18.21;100.00;101120.84;5196934;28;20503;-54
2023/09/08 03:15:19;;;;;;;4.30;3.05;;;17.80;99.90;;;18.19;100.00;101115.53;5201096;28;20061;-54
2023/09/08 03:17:52;;;;;;;5.30;3.58;;;17.80;99.90;;;18.17;100.00;101107.63;5200920;28;20061;-55
2023/09/08 03:20:25;;;;;;;4.97;3.00;;;17.70;99.90;;;18.15;100.00;101114.66;5196780;28;20058;-54
2023/09/08 03:22:58;;;;;;;4.95;2.92;;;17.70;99.90;;;18.11;100.00;101117.22;5197512;28;20041;-54
2023/09/08 03:25:31;;;;;;;5.43;3.45;;;17.70;99.90;;;18.05;100.00;101117.19;5191687;28;20567;-53
2023/09/08 03:28:05;;;;;;;5.05;3.55;;;17.60;99.90;;;18.00;100.00;101109.25;5214585;28;20096;-54
2023/09/08 03:30:38;;;;;;;4.50;2.90;;;17.60;99.90;;;17.96;100.00;101111.81;5201085;28;20517;-53
2023/09/08 03:33:10;;;;;;;4.25;3.17;;;17.60;99.90;;;17.89;100.00;101106.50;5199876;28;20425;-56
2023/09/08 03:35:43;;;;;;;4.30;3.00;;;17.50;99.90;;;17.85;100.00;101109.06;5196916;28;20042;-55
2023/09/08 03:38:15;;;;;;;4.93;3.05;;;17.50;99.90;;;17.82;100.00;101111.69;5213351;28;20066;-54
2023/09/08 03:40:47;;;;;;;5.35;3.25;;;17.40;99.90;;;17.80;100.00;101110.78;5196616;28;20042;-54
2023/09/08 03:43:21;;;;;;;5.78;3.30;;;17.40;99.90;;;17.78;100.00;101112.50;5201167;28;20048;-53
2023/09/08 03:45:54;;;;;;;5.00;3.28;;;17.40;99.90;;;17.75;100.00;101112.50;5200848;28;20550;-54
2023/09/08 03:48:27;;;;;;;5.68;3.25;;;17.40;99.90;;;17.75;100.00;101115.13;5198877;28;20458;-55
2023/09/08 03:51:00;;;;;;;5.88;3.20;;;17.40;99.90;;;17.73;100.00;101108.94;5203564;28;20045;-54
2023/09/08 03:53:33;;;;;;;5.10;3.25;;;17.40;99.90;;;17.71;100.00;101108.00;5200357;28;20045;-55
2023/09/08 03:56:05;;;;;;;5.63;3.50;;;17.30;99.90;;;17.70;100.00;101108.88;5219701;28;20049;-54
2023/09/08 03:58:39;;;;;;;5.53;3.40;;;17.30;99.90;;;17.69;100.00;101109.75;5200174;28;20124;-54
2023/09/08 04:01:11;;;;;;;6.60;3.80;;;17.30;99.90;;;17.68;100.00;101110.63;5219367;28;20048;-54
2023/09/08 04:03:44;;;;;;;4.57;3.25;;;17.30;99.90;;;17.66;100.00;101112.34;5196744;28;20507;-54
2023/09/08 04:06:17;;;;;;;4.97;3.50;;;17.30;99.90;;;17.64;100.00;101114.97;5203964;28;20050;-53
2023/09/08 04:08:50;;;;;;;6.88;3.83;;;17.30;99.90;;;17.62;100.00;101120.25;5205071;28;20518;-53
2023/09/08 04:11:22;;;;;;;5.57;3.67;;;17.20;99.90;;;17.58;100.00;101121.06;5200040;28;20497;-53
2023/09/08 04:13:56;;;;;;;4.90;3.22;;;17.20;99.90;;;17.56;100.00;101117.53;5216830;28;20045;-54
2023/09/08 04:16:29;;;;;;;4.65;3.30;;;17.20;99.90;;;17.53;100.00;101125.38;5199987;28;20069;-54
2023/09/08 04:19:01;;;;;;;4.45;3.10;;;17.20;99.90;;;17.52;100.00;101120.09;5217864;28;20403;-54
2023/09/08 04:21:35;;;;;;;5.88;3.58;;;17.20;99.90;;;17.52;100.00;101125.38;5203553;28;20059;-55
2023/09/08 04:24:10;;;;;;;5.28;3.40;;;17.10;99.90;;;17.50;100.00;101128.00;5201913;28;20045;-54
2023/09/08 04:26:42;;;;;;;4.47;3.00;;;17.10;99.90;;;17.47;100.00;101127.06;5199900;28;20062;-55
2023/09/08 04:29:16;;;;;;;4.53;2.80;;;17.10;99.90;;;17.44;100.00;101122.66;5219441;28;20037;-54
2023/09/08 04:31:48;;;;;;;5.00;2.90;;;17.00;99.90;;;17.41;100.00;101122.63;5198971;28;20050;-54
2023/09/08 04:34:21;;;;;;;5.50;3.25;;;17.00;99.90;;;17.38;100.00;101125.22;5211973;28;20042;-53
2023/09/08 04:36:53;;;;;;;5.18;3.10;;;17.00;99.90;;;17.37;100.00;101126.09;5199709;28;20529;-53
2023/09/08 04:39:29;;;;;;;4.28;3.10;;;17.00;99.90;;;17.38;100.00;101122.59;5203163;28;20099;-55
2023/09/08 04:42:01;;;;;;;6.20;3.30;;;17.00;99.90;;;17.41;100.00;101116.44;5202774;28;20041;-56
2023/09/08 04:44:35;;;;;;;5.32;3.22;;;17.00;99.90;;;17.42;100.00;101119.13;5203614;28;20045;-54
2023/09/08 04:47:07;;;;;;;5.65;3.35;;;17.00;99.90;;;17.43;100.00;101120.91;5202854;28;20037;-53
2023/09/08 04:49:40;;;;;;;5.78;3.45;;;17.00;99.90;;;17.41;100.00;101130.53;5203305;28;20525;-53
2023/09/08 04:52:13;;;;;;;5.57;3.70;;;17.00;99.90;;;17.40;100.00;101114.69;5202570;28;20059;-53
2023/09/08 04:54:46;;;;;;;5.00;3.33;;;17.00;99.90;;;17.38;100.00;101117.31;5203215;28;20044;-54
2023/09/08 04:57:18;;;;;;;6.43;3.50;;;17.00;99.90;;;17.39;100.00;101118.19;5198918;28;20069;-53
2023/09/08 04:59:54;;;;;;;5.15;3.40;;;17.00;99.90;;;17.42;100.00;101116.50;5197933;28;20103;-53
2023/09/08 05:02:27;;;;;;;5.05;3.60;;;17.00;99.90;;;17.44;100.00;101122.66;5198826;28;20415;-54
2023/09/08 05:05:00;;;;;;;5.00;3.47;;;17.10;99.90;;;17.45;100.00;101124.41;5216578;28;20269;-53
2023/09/08 05:07:35;;;;;;;5.65;3.58;;;17.10;99.90;;;17.45;100.00;101126.19;5202869;28;20059;-54
2023/09/08 05:10:08;;;;;;;4.88;3.40;;;17.10;99.90;;;17.40;100.00;101131.38;5202406;28;20044;-55
2023/09/08 05:12:43;;;;;;;7.50;3.42;;;17.00;99.90;;;17.38;100.00;101125.22;5202657;28;20136;-55
2023/09/08 05:15:17;;;;;;;5.38;3.13;;;17.00;99.90;;;17.36;100.00;101126.97;5201659;28;20044;-52
2023/09/08 05:17:58;;;;;;;5.60;3.55;;;17.00;99.90;;;17.35;100.00;101126.06;5199403;28;20072;-54
2023/09/08 05:20:32;;;;;;;5.38;3.17;;;17.00;99.90;;;17.35;100.00;101130.47;5202622;28;20065;-53
2023/09/08 05:23:06;;;;;;;6.20;3.42;;;17.00;99.90;;;17.35;100.00;101122.56;5199700;28;20091;-54
2023/09/08 05:25:38;;;;;;;5.88;3.40;;;17.00;99.90;;;17.35;100.00;101123.44;5198929;28;20140;-56
2023/09/08 05:28:11;;;;;;;4.43;3.20;;;17.00;99.90;;;17.39;100.00;101119.06;5217336;28;20069;-54
2023/09/08 05:30:45;;;;;;;6.07;3.72;;;17.00;99.90;;;17.41;100.00;101125.28;5198354;28;20050;-53
2023/09/08 05:33:17;;;;;;;4.97;3.25;;;17.00;99.90;;;17.44;100.00;101122.66;5216843;28;20045;-53
2023/09/08 05:35:49;;;;;;;5.68;3.20;;;17.00;99.90;;;17.47;100.00;101127.94;5198855;28;20056;-55
2023/09/08 05:38:24;;;;;;;5.13;3.42;;;17.10;99.90;;;17.49;100.00;101120.97;5218702;28;20056;-54
2023/09/08 05:40:57;;;;;;;6.10;3.53;;;17.10;99.90;;;17.51;100.00;101118.34;5194193;28;20566;-54
2023/09/08 05:43:29;;;;;;;6.72;3.60;;;17.10;99.90;;;17.52;100.00;101123.63;5198038;28;20044;-54
2023/09/08 05:46:03;;;;;;;4.75;3.35;;;17.20;99.90;;;17.55;100.00;101133.34;5215752;28;20058;-53
2023/09/08 05:48:37;;;;;;;;;;;17.20;99.90;;;17.59;100.00;101128.09;5190915;28;20601;-52
2023/09/08 05:51:10;;;;;;;5.03;3.53;;;17.20;99.90;;;17.64;100.00;101131.66;5214731;28;20164;-53
2023/09/08 05:53:43;;;;;;;5.95;3.63;;;17.30;99.90;;;17.72;100.00;101133.53;5198015;28;20049;-53
2023/09/08 05:56:16;;;;;;;5.80;3.42;;;17.30;99.90;;;17.78;100.00;101130.97;5217834;28;20045;-53
2023/09/08 05:58:50;;;;;;;5.10;3.10;;;17.40;99.90;;;17.84;100.00;101128.41;5198406;28;20073;-55
2023/09/08 06:01:24;;;;;;;5.97;3.47;;;17.50;99.90;;;17.90;100.00;101128.47;5217896;28;20042;-52
2023/09/08 06:03:57;;;;;;;;;;;17.50;99.90;;;17.95;100.00;101126.78;5186145;28;20566;-55
2023/09/08 06:06:30;;;;;;;4.20;2.90;;;17.60;99.90;;;18.01;100.00;101131.22;5198399;28;19925;-54
2023/09/08 06:09:07;;;;;;;6.30;3.40;;;17.60;99.90;;;18.08;100.00;101139.22;5214857;28;20069;-55
2023/09/08 06:11:43;;;;;;;5.75;3.17;;;17.70;99.90;;;18.15;100.00;101146.31;5196461;28;20511;-52
2023/09/08 06:14:16;;;;;;;5.43;3.53;;;17.80;99.90;;;18.27;100.00;101144.66;5216903;28;20960;-54
2023/09/08 06:16:53;;;;;;;4.97;3.30;;;17.80;99.90;;;19.05;100.00;101146.16;5197993;28;20095;-54
2023/09/08 06:19:26;;;;;;;5.63;3.60;;;18.20;99.90;;;21.26;100.00;101150.88;5217815;28;20069;-53
2023/09/08 06:22:01;;;;;;;5.85;3.60;;;19.60;99.90;;;23.80;100.00;101146.13;5201255;28;20049;-54
2023/09/08 06:24:34;;;;;;;5.40;3.38;;;21.50;99.90;;;26.09;93.77;101149.88;5202052;28;20057;-53
2023/09/08 06:27:07;;;;;;;4.80;3.08;;;23.50;99.90;;;28.04;83.86;101146.28;5193256;28;20053;-54
2023/09/08 06:29:43;;;;;;;4.93;2.88;;;25.40;99.90;;;29.67;76.53;101152.22;5196144;28;20042;-53
2023/09/08 06:32:17;;;;;;;6.13;3.15;;;27.00;96.40;;;31.12;70.24;101156.94;5197970;28;20057;-54
2023/09/08 06:34:52;;;;;;;5.13;2.70;;;28.50;92.40;;;32.05;66.78;101159.81;5202174;28;20046;-55
2023/09/08 06:37:24;;;;;;;5.30;3.03;;;29.50;88.30;;;32.76;62.43;101167.94;5201090;28;20041;-54
2023/09/08 06:39:59;;;;;;;4.82;3.05;;;30.30;81.20;;;32.68;61.17;101158.44;5193438;28;20068;-56
2023/09/08 06:42:31;;;;;;;5.80;2.90;;;30.60;77.20;;;33.16;59.71;101164.91;5189800;28;20042;-54
2023/09/08 06:45:13;;;;;;;4.65;3.08;;;31.00;75.00;;;33.45;58.72;101166.09;5197464;28;20057;-54
2023/09/08 06:47:48;;;;;;;4.38;3.10;;;31.30;72.80;;;34.13;57.31;101165.88;5205690;28;20438;-56
2023/09/08 06:50:21;;;;;;;4.18;2.70;;;31.90;71.20;;;33.97;55.89;101165.00;5192165;28;20503;-55
2023/09/08 06:52:54;;;;;;;3.95;2.63;;;32.00;68.60;;;34.31;55.48;101163.06;5193541;28;20422;-55
2023/09/08 06:55:26;;;;;;;5.15;2.97;;;32.20;67.70;;;34.39;54.86;101166.19;5184555;28;20057;-55
2023/09/08 06:57:59;;;;;;;5.07;2.95;;;32.40;66.40;;;34.61;54.15;101174.78;5193342;28;20045;-54
2023/09/08 07:00:31;;;;;;;5.95;2.90;;;32.60;65.70;;;35.05;53.41;101165.84;5205555;28;20034;-54
2023/09/08 07:03:06;;;;;;;3.10;2.47;;;32.90;65.30;;;35.49;52.63;101171.22;5189021;28;20057;-54
2023/09/08 07:05:41;;;;;;;3.88;2.80;;;33.30;64.20;;;35.99;51.13;101166.22;5197611;28;20050;-56
2023/09/08 07:08:13;;;;;;;4.43;2.83;;;33.80;62.80;;;35.68;51.01;101162.78;5207328;28;20067;-56
2023/09/08 07:10:53;;;;;;;3.88;2.60;;;33.80;61.50;;;33.62;53.99;101151.63;5194942;28;20100;-56
2023/09/08 07:13:25;;;;;;;3.60;2.72;;;32.60;62.40;;;31.71;57.50;101149.75;5188851;28;20141;-55
2023/09/08 07:15:57;;;;;;;4.30;2.95;;;31.20;64.40;;;30.32;61.11;101148.72;5189035;28;20136;-54
2023/09/08 07:18:34;;;;;;;5.43;2.97;;;30.00;67.00;;;29.44;63.56;101153.94;5192725;28;20136;-54
2023/09/08 07:21:07;;;;;;;5.90;2.85;;;29.10;69.30;;;28.69;65.42;101155.78;5192075;28;20053;-56
2023/09/08 07:23:40;;;;;;;4.10;2.92;;;28.30;70.90;;;28.11;67.21;101146.97;5196244;28;20041;-55
2023/09/08 07:26:14;;;;;;;3.72;2.38;;;27.70;72.40;;;27.63;68.92;101147.53;5202276;28;20510;-55
2023/09/08 07:28:48;;;;;;;5.47;3.22;;;27.20;74.00;;;27.43;70.32;101149.91;5197097;28;20053;-55
2023/09/08 07:31:21;;;;;;;4.38;3.20;;;26.90;75.60;;;27.38;70.85;101149.16;5204730;28;20041;-54
2023/09/08 07:33:57;;;;;;;4.05;3.05;;;26.70;76.50;;;27.43;71.24;101150.78;5198037;28;20136;-53
2023/09/08 07:36:29;;;;;;;3.80;3.13;;;26.70;77.50;;;27.60;71.42;101155.66;5198065;28;20041;-53
2023/09/08 07:39:01;;;;;;;4.60;3.10;;;26.70;78.10;;;27.76;71.29;101154.28;5192808;28;20061;-55
2023/09/08 07:41:34;;;;;;;4.82;2.90;;;26.90;78.30;;;27.72;70.58;101151.78;5196521;28;20432;-55
2023/09/08 07:44:07;;;;;;;5.75;3.38;;;26.90;77.80;;;27.84;71.65;101151.38;5204592;28;20076;-55
2023/09/08 07:46:40;;;;;;;5.45;3.13;;;26.90;78.70;;;27.93;70.31;101152.91;5201016;28;20034;-54
2023/09/08 07:49:14;;;;;;;5.70;3.35;;;27.00;78.00;;;27.85;69.94;101148.66;5218258;28;20415;-55
2023/09/08 07:51:47;;;;;;;5.47;3.10;;;27.00;77.50;;;27.88;71.29;101142.31;5204352;28;20049;-55
2023/09/08 07:54:19;;;;;;;6.10;3.50;;;27.00;79.40;;;27.99;70.29;101139.31;5196245;28;20531;-54
2023/09/08 07:56:52;;;;;;;4.75;3.13;;;27.10;78.30;;;28.04;70.69;101150.78;5199472;28;20135;-55
2023/09/08 07:59:24;;;;;;;5.43;2.78;;;27.10;78.60;;;28.19;70.51;101152.94;5203253;28;20885;-54
2023/09/08 08:01:57;;;;;;;4.68;3.17;;;27.20;78.60;;;28.43;70.52;101151.31;5195743;28;20053;-56
2023/09/08 08:04:30;;;;;;;4.70;2.90;;;27.40;78.90;;;28.67;70.00;101152.25;5203505;28;20041;-55
2023/09/08 08:07:03;;;;;;;5.00;2.70;;;27.60;78.80;;;28.91;68.34;101146.06;5204279;28;20041;-55
2023/09/08 08:09:35;;;;;;;3.80;2.90;;;27.70;77.80;;;29.08;67.83;101144.56;5192095;28;20082;-55
2023/09/08 08:12:08;;;;;;;4.70;2.95;;;27.90;77.30;;;29.35;67.22;101140.88;5196451;28;20042;-54
2023/09/08 08:14:40;;;;;;;5.38;3.10;;;28.00;77.20;;;29.72;66.66;101152.91;5196087;28;20071;-55
2023/09/08 08:17:12;;;;;;;4.85;3.25;;;28.20;77.20;;;30.23;66.54;101160.72;5200768;28;20054;-55
2023/09/08 08:19:47;;;;;;;4.75;3.10;;;28.40;77.20;;;30.52;65.15;101153.28;5198922;28;20075;-55
2023/09/08 08:22:22;;;;;;;4.35;2.80;;;28.60;76.20;;;30.93;64.16;101151.50;5198894;28;20042;-55
2023/09/08 08:24:54;;;;;;;5.93;3.30;;;28.80;76.00;;;31.38;62.67;101155.78;5189816;28;20041;-55
2023/09/08 08:27:27;;;;;;;4.18;2.90;;;29.00;75.00;;;32.07;61.64;101155.19;5194528;28;20514;-56
2023/09/08 08:30:00;;;;;;;4.95;2.65;;;29.40;75.10;;;32.98;59.65;101162.31;5196622;28;20383;-55
2023/09/08 08:32:33;;;;;;;3.92;2.65;;;29.90;74.20;;;33.98;57.02;101155.94;5198953;28;20092;-56
2023/09/08 08:35:08;;;;;;;4.78;3.00;;;30.60;72.20;;;34.81;55.21;101160.06;5190601;28;20041;-55
2023/09/08 08:37:42;;;;;;;3.58;3.13;;;31.30;70.70;;;35.19;53.47;101163.13;5183514;28;20096;-55
2023/09/08 08:40:14;;;;;;;4.57;3.17;;;31.90;68.10;;;35.50;52.91;101151.28;5208219;28;20046;-57
2023/09/08 08:42:46;;;;;;;4.95;3.15;;;32.40;67.00;;;36.03;52.03;101148.78;5191293;28;20049;-55
2023/09/08 08:45:21;;;;;;;5.78;3.08;;;32.90;65.90;;;36.31;51.17;101145.06;5213161;28;20045;-55
2023/09/08 08:47:54;;;;;;;3.53;2.75;;;33.30;64.90;;;36.59;50.74;101138.69;5189737;28;20057;-55
2023/09/08 08:50:28;;;;;;;4.47;2.83;;;33.60;64.30;;;36.76;50.43;101143.78;5201452;28;20042;-56
2023/09/08 08:53:02;;;;;;;5.45;2.97;;;33.90;63.80;;;36.94;50.15;101144.38;5198724;28;20515;-55
2023/09/08 08:55:36;;;;;;;5.18;2.70;;;34.10;63.10;;;36.58;50.26;101136.91;5219027;28;20049;-55
2023/09/08 08:58:08;;;;;;;4.07;2.72;;;34.00;62.70;;;36.48;50.94;101138.53;5202999;28;20049;-55
2023/09/08 09:00:40;;;;;;;4.65;2.83;;;34.00;62.80;;;36.53;50.82;101141.81;5207771;28;20065;-54
2023/09/08 09:03:14;;;;;;;5.50;2.80;;;34.10;62.70;;;36.19;51.34;101138.66;5198519;28;20053;-55
2023/09/08 09:05:47;;;;;;;;;;;34.10;62.30;;;35.69;51.83;101144.66;5191751;28;20049;-55
2023/09/08 09:08:23;;;;;;;4.13;3.03;;;33.90;62.60;;;35.50;52.51;101139.56;5200544;28;19921;-54
2023/09/08 09:10:55;;;;;;;4.63;3.10;;;33.80;63.00;;;35.14;53.31;101132.75;5199353;28;20565;-55
2023/09/08 09:13:28;;;;;;;4.28;2.80;;;33.60;63.00;;;34.64;54.32;101138.56;5206955;28;20053;-56
2023/09/08 09:16:03;;;;;;;4.05;2.60;;;33.30;63.40;;;34.09;54.95;101142.66;5190744;28;20422;-55
2023/09/08 09:18:35;;;;;;;4.93;2.95;;;33.00;64.00;;;33.47;56.43;101138.97;5198885;28;20152;-54
2023/09/08 09:21:09;;;;;;;5.20;3.35;;;32.50;64.70;;;32.89;57.59;101131.28;5186199;28;20407;-55
2023/09/08 09:23:41;;;;;;;;;;;32.10;65.40;;;32.63;58.65;101130.78;5211617;28;20408;-54
2023/09/08 09:26:25;;;;;;;4.30;2.80;;;31.80;66.30;;;32.49;59.13;101129.78;5194529;28;19921;-54
2023/09/08 09:28:59;;;;;;;3.72;3.05;;;31.60;66.90;;;32.22;59.91;101130.19;5190917;28;20070;-54
2023/09/08 09:31:31;;;;;;;4.20;2.92;;;31.30;67.40;;;31.99;59.91;101128.63;5192915;28;20052;-55
2023/09/08 09:34:05;;;;;;;5.70;3.17;;;31.10;67.30;;;31.90;60.39;101118.31;5190745;28;20056;-55
2023/09/08 09:36:45;;;;;;;3.70;2.83;;;31.00;67.90;;;31.92;61.02;101126.31;5217784;28;20136;-54
2023/09/08 09:39:21;;;;;;;5.45;3.17;;;30.90;68.50;;;31.82;60.83;101120.47;5186176;28;20057;-56
2023/09/08 09:41:56;;;;;;;4.55;3.00;;;30.90;68.30;;;31.85;61.44;101120.34;5198307;28;20451;-54
2023/09/08 09:44:28;;;;;;;5.20;3.20;;;30.90;68.90;;;32.02;61.78;101120.41;5206723;28;20050;-54
2023/09/08 09:47:02;;;;;;;3.55;2.90;;;30.90;69.30;;;32.20;61.43;101109.63;5196384;28;20065;-54
2023/09/08 09:49:43;;;;;;;4.55;3.03;;;31.10;69.30;;;32.29;60.43;101109.19;5201868;28;20072;-56
2023/09/08 09:52:25;;;;;;;6.55;3.33;;;31.10;68.50;;;32.09;59.91;101121.84;5193558;28;20042;-54
2023/09/08 09:54:59;;;;;;;4.15;3.00;;;31.10;67.90;;;32.01;60.60;101120.44;5195908;28;20490;-55
2023/09/08 09:57:34;;;;;;;4.72;3.10;;;31.00;68.20;;;31.97;60.00;101110.78;5183108;28;20104;-54
2023/09/08 10:00:09;;;;;;;5.10;3.17;;;30.90;67.70;;;32.01;60.80;101115.94;5193014;28;20486;-55
2023/09/08 10:02:42;;;;;;;6.03;3.13;;;31.00;68.50;;;32.07;60.56;101121.03;5217994;28;20049;-56
2023/09/08 10:05:15;;;;;;;4.43;3.13;;;31.00;68.30;;;32.08;60.09;101112.00;5203324;28;20163;-54
2023/09/08 10:07:50;;;;;;;4.28;2.80;;;31.00;67.90;;;32.11;59.63;101122.63;5198228;28;20054;-56
2023/09/08 10:10:27;;;;;;;5.10;2.83;;;31.10;67.50;;;32.20;59.71;101115.03;5203510;28;20085;-54
2023/09/08 10:13:05;;;;;;;4.63;3.13;;;31.10;67.50;;;32.21;59.40;101122.16;5212475;28;20049;-54
2023/09/08 10:15:41;;;;;;;4.13;2.80;;;31.20;67.30;;;32.26;59.31;101109.31;5198299;28;20042;-56
2023/09/08 10:18:19;;;;;;;5.75;3.17;;;31.20;67.30;;;32.36;59.10;101110.66;5189975;28;20038;-55
2023/09/08 10:20:54;;;;;;;4.72;2.90;;;31.30;67.30;;;32.49;59.58;101110.88;5189967;28;20153;-54
2023/09/08 10:23:34;;;;;;;4.38;2.90;;;31.40;67.60;;;32.57;58.69;101108.66;5181502;28;20529;-54
2023/09/08 10:26:17;;;;;;;4.63;3.30;;;31.50;66.80;;;32.63;59.03;101114.59;5196748;28;20060;-54
2023/09/08 10:28:51;;;;;;;4.38;3.00;;;31.60;67.10;;;32.72;59.16;101112.38;5198355;28;20099;-54
2023/09/08 10:31:24;;;;;;;;;;;31.60;67.10;;;32.78;58.70;101110.22;5181679;28;20537;-54
2023/09/08 10:33:57;;;;;;;3.95;2.95;;;31.70;66.80;;;32.97;58.17;101107.44;5181916;28;19925;-56
2023/09/08 10:36:33;;;;;;;5.80;2.92;;;31.80;66.40;;;33.21;58.62;101102.56;5191579;28;20452;-56
2023/09/08 10:39:31;;;;;;;3.95;2.55;;;32.00;67.10;;;33.31;58.12;101095.66;5218335;28;20411;-55